Time;durP1;ratioP1;P1;durP2;ratioP2;P2;SDS_P1;SDS_P2;PMS_P1;PMS_P2;Temp;Humidity;BMP_temperature;BMP_pressure;BME280_temperature;BME280_humidity;BME280_pressure;Samples;Min_cycle;Max_cycle;Signal;HPM_P1;HPM_P2
2022/03/07 00:00:11;;;;;;;12.35;11.13;;;3.70;54.80;;;;;;4888310;29;20204;-81
2022/03/07 00:02:39;;;;;;;14.57;11.60;;;3.80;55.00;;;;;;4886312;29;20682;-80
2022/03/07 00:05:06;;;;;;;13.02;11.82;;;3.70;55.20;;;;;;4896425;29;20216;-81
2022/03/07 00:07:33;;;;;;;11.15;10.15;;;3.80;55.50;;;;;;4896148;29;20271;-82
2022/03/07 00:09:59;;;;;;;12.02;10.82;;;3.70;55.60;;;;;;4888276;29;20249;-82
2022/03/07 00:12:26;;;;;;;12.45;11.15;;;3.70;56.00;;;;;;4881975;29;20218;-80
2022/03/07 00:14:54;;;;;;;11.50;10.50;;;3.70;56.40;;;;;;4892738;29;20589;-81
2022/03/07 00:17:20;;;;;;;12.68;10.57;;;3.70;56.60;;;;;;4884238;29;20204;-81
2022/03/07 00:19:48;;;;;;;11.57;10.38;;;3.70;56.70;;;;;;4886784;29;20206;-82
2022/03/07 00:22:15;;;;;;;12.00;10.80;;;3.70;57.00;;;;;;4889190;29;20214;-80
2022/03/07 00:24:42;;;;;;;11.90;10.77;;;3.70;57.10;;;;;;4897275;29;20440;-82
2022/03/07 00:27:09;;;;;;;11.57;10.48;;;3.60;57.40;;;;;;4893430;29;20196;-82
2022/03/07 00:29:36;;;;;;;11.35;10.18;;;3.60;57.50;;;;;;4883482;29;20807;-81
2022/03/07 00:32:03;;;;;;;12.25;11.05;;;3.50;57.50;;;;;;4883499;29;20233;-81
2022/03/07 00:34:29;;;;;;;11.90;10.70;;;3.50;57.70;;;;;;4886976;29;20306;-82
2022/03/07 00:36:57;;;;;;;11.10;10.00;;;3.40;57.80;;;;;;4886348;29;20446;-81
2022/03/07 00:39:24;;;;;;;11.55;10.45;;;3.40;57.90;;;;;;4902392;29;20249;-81
2022/03/07 00:41:51;;;;;;;11.40;10.40;;;3.50;57.90;;;;;;4907950;29;20213;-81
2022/03/07 00:46:45;;;;;;;11.27;9.93;;;3.40;57.70;;;;;;4917057;29;20215;-83
2022/03/07 00:49:13;;;;;;;10.13;9.13;;;3.40;57.90;;;;;;4919094;29;20460;-83
2022/03/07 00:51:40;;;;;;;11.63;10.43;;;3.40;57.90;;;;;;4919585;29;20216;-83
2022/03/07 00:54:08;;;;;;;11.77;10.68;;;3.30;57.80;;;;;;4919444;29;20229;-83
2022/03/07 00:56:35;;;;;;;10.43;9.25;;;3.30;57.90;;;;;;4919998;29;20234;-83
2022/03/07 00:59:02;;;;;;;10.88;9.90;;;3.30;58.10;;;;;;4919574;29;20208;-83
2022/03/07 01:01:28;;;;;;;11.13;10.10;;;3.30;58.10;;;;;;4919055;29;20579;-83
2022/03/07 01:03:55;;;;;;;13.88;10.70;;;3.30;58.20;;;;;;4920019;29;20200;-84
2022/03/07 01:06:22;;;;;;;10.63;9.48;;;3.30;58.20;;;;;;4919162;29;20283;-84
2022/03/07 01:08:49;;;;;;;10.75;9.75;;;3.30;58.30;;;;;;4920102;29;20207;-83
2022/03/07 01:11:17;;;;;;;11.55;10.40;;;3.30;58.30;;;;;;4931650;29;20204;-82
2022/03/07 01:13:43;;;;;;;10.53;9.53;;;3.20;58.40;;;;;;4933268;29;20227;-83
2022/03/07 01:16:10;;;;;;;10.93;9.82;;;3.20;58.50;;;;;;4930695;29;20476;-84
2022/03/07 01:18:37;;;;;;;10.20;9.17;;;3.20;58.50;;;;;;4921161;29;20238;-84
2022/03/07 01:21:04;;;;;;;11.45;10.15;;;3.20;58.40;;;;;;4918841;29;20460;-84
2022/03/07 01:23:30;;;;;;;9.80;8.90;;;3.20;58.00;;;;;;4917937;29;20204;-84
2022/03/07 01:25:57;;;;;;;10.38;9.50;;;3.20;57.80;;;;;;4917694;29;20258;-83
2022/03/07 01:28:25;;;;;;;12.45;9.90;;;3.10;57.80;;;;;;4926104;29;20207;-83
2022/03/07 01:30:52;;;;;;;11.57;10.27;;;3.10;58.00;;;;;;4927321;29;20211;-84
2022/03/07 01:33:19;;;;;;;11.23;9.75;;;3.00;57.90;;;;;;4924337;29;20468;-83
2022/03/07 01:35:45;;;;;;;10.35;8.75;;;3.00;57.90;;;;;;4924313;29;20231;-84
2022/03/07 01:38:12;;;;;;;10.65;9.65;;;3.00;58.00;;;;;;4918941;29;20214;-84
2022/03/07 01:40:41;;;;;;;11.80;10.30;;;3.00;58.10;;;;;;4918345;29;20211;-84
2022/03/07 01:43:08;;;;;;;11.00;9.85;;;3.00;58.20;;;;;;4917616;29;20206;-84
2022/03/07 01:45:36;;;;;;;10.90;10.00;;;3.00;58.30;;;;;;4924519;29;20230;-84
2022/03/07 01:48:02;;;;;;;10.75;9.57;;;2.90;58.20;;;;;;4919722;29;20207;-85
2022/03/07 01:50:29;;;;;;;10.90;9.90;;;2.90;58.40;;;;;;4921373;29;20213;-83
2022/03/07 01:52:56;;;;;;;10.32;9.32;;;2.80;58.10;;;;;;4929062;29;20254;-83
2022/03/07 01:55:23;;;;;;;10.82;9.57;;;2.80;58.30;;;;;;4934191;29;20223;-82
2022/03/07 01:57:50;;;;;;;9.90;9.00;;;2.80;58.20;;;;;;4929084;29;20698;-84
2022/03/07 02:00:19;;;;;;;10.70;9.63;;;2.80;58.10;;;;;;4922971;29;20250;-84
2022/03/07 02:02:47;;;;;;;11.85;10.05;;;2.70;58.10;;;;;;4921232;29;20211;-84
2022/03/07 02:05:16;;;;;;;12.02;10.23;;;2.60;58.00;;;;;;4922419;29;20241;-83
2022/03/07 02:07:43;;;;;;;10.75;9.63;;;2.60;57.90;;;;;;4922423;29;20637;-84
2022/03/07 02:10:11;;;;;;;11.15;10.13;;;2.60;58.00;;;;;;4922336;29;20207;-83
2022/03/07 02:12:38;;;;;;;11.05;10.05;;;2.50;58.10;;;;;;4921786;29;20210;-83
2022/03/07 02:15:07;;;;;;;10.18;9.23;;;2.30;58.30;;;;;;4921913;29;20218;-83
2022/03/07 02:17:34;;;;;;;10.40;8.93;;;2.30;58.50;;;;;;4922403;29;20275;-83
2022/03/07 02:20:02;;;;;;;9.88;8.88;;;2.40;58.30;;;;;;4921796;29;20211;-84
2022/03/07 02:22:30;;;;;;;11.82;9.43;;;2.20;58.00;;;;;;4922166;29;20199;-83
2022/03/07 02:24:56;;;;;;;11.48;9.20;;;2.00;58.30;;;;;;4922127;29;20764;-83
2022/03/07 02:27:23;;;;;;;11.00;10.00;;;1.90;58.70;;;;;;4924774;29;20210;-84
2022/03/07 02:29:51;;;;;;;9.90;8.90;;;1.90;59.20;;;;;;4922337;29;20230;-83
2022/03/07 02:32:17;;;;;;;11.68;10.57;;;1.80;59.30;;;;;;4922080;29;20230;-83
2022/03/07 02:34:44;;;;;;;12.05;9.48;;;1.70;59.40;;;;;;4934635;29;20218;-83
2022/03/07 02:37:11;;;;;;;10.85;9.75;;;1.70;59.70;;;;;;4944406;29;20203;-84
2022/03/07 02:39:39;;;;;;;10.35;9.32;;;1.70;59.90;;;;;;4943749;29;20178;-85
2022/03/07 02:42:06;;;;;;;10.82;9.82;;;1.70;60.00;;;;;;4929830;29;20207;-83
2022/03/07 02:44:33;;;;;;;10.68;9.60;;;1.60;60.20;;;;;;4923811;29;20290;-83
2022/03/07 02:46:59;;;;;;;11.15;9.38;;;1.60;60.30;;;;;;4929457;29;20235;-83
2022/03/07 02:49:26;;;;;;;11.38;10.27;;;1.60;60.30;;;;;;4927104;29;20678;-83
2022/03/07 02:51:53;;;;;;;10.85;9.82;;;1.60;60.70;;;;;;4936541;29;20207;-83
2022/03/07 02:54:19;;;;;;;11.25;9.48;;;1.50;60.90;;;;;;4938727;29;20231;-82
2022/03/07 02:56:47;;;;;;;12.00;10.75;;;1.40;60.90;;;;;;4936975;29;20206;-83
2022/03/07 02:59:14;;;;;;;12.52;9.80;;;1.40;61.20;;;;;;4936418;29;20211;-83
2022/03/07 03:01:43;;;;;;;10.10;9.10;;;1.30;61.50;;;;;;4926024;29;20207;-84
2022/03/07 03:04:09;;;;;;;10.73;9.73;;;1.20;62.00;;;;;;4921613;29;20219;-83
2022/03/07 03:06:36;;;;;;;11.90;10.10;;;1.20;62.40;;;;;;4921650;29;20242;-84
2022/03/07 03:09:04;;;;;;;11.80;10.35;;;1.10;62.70;;;;;;4921456;29;20206;-81
2022/03/07 03:11:32;;;;;;;11.32;9.18;;;1.10;63.70;;;;;;4920220;29;20215;-83
2022/03/07 03:14:00;;;;;;;12.25;9.48;;;1.10;62.90;;;;;;4920268;29;20198;-83
2022/03/07 03:16:27;;;;;;;10.82;9.75;;;1.20;63.10;;;;;;4919685;29;20222;-83
2022/03/07 03:18:53;;;;;;;10.90;9.80;;;1.20;62.90;;;;;;4919837;29;20203;-83
2022/03/07 03:21:20;;;;;;;11.75;10.55;;;1.10;62.60;;;;;;4919103;29;20678;-84
2022/03/07 03:23:47;;;;;;;11.25;10.15;;;1.20;62.20;;;;;;4919125;29;20207;-83
2022/03/07 03:26:14;;;;;;;11.40;10.10;;;1.10;61.80;;;;;;4919384;29;20230;-84
2022/03/07 03:28:41;;;;;;;11.00;9.88;;;1.00;61.80;;;;;;4919391;29;20246;-84
2022/03/07 03:31:12;;;;;;;11.40;10.30;;;1.00;62.00;;;;;;4918865;29;20207;-83
2022/03/07 03:33:39;;;;;;;11.30;10.18;;;1.00;62.00;;;;;;4919067;29;20214;-83
2022/03/07 03:36:06;;;;;;;11.73;10.73;;;1.10;61.80;;;;;;4919148;29;20326;-84
2022/03/07 03:38:33;;;;;;;11.93;9.98;;;1.10;61.70;;;;;;4918858;29;20210;-83
2022/03/07 03:40:59;;;;;;;12.55;11.35;;;1.10;61.40;;;;;;4918810;29;20285;-86
2022/03/07 03:43:26;;;;;;;11.13;9.93;;;1.00;61.60;;;;;;4918725;29;20218;-83
2022/03/07 03:45:53;;;;;;;13.20;9.65;;;1.00;62.10;;;;;;4918239;29;20258;-84
2022/03/07 03:48:21;;;;;;;11.73;10.55;;;0.90;62.00;;;;;;4918880;29;20736;-83
2022/03/07 03:50:48;;;;;;;11.27;10.13;;;0.90;62.00;;;;;;4918323;29;20219;-83
2022/03/07 03:53:14;;;;;;;12.93;11.05;;;0.90;62.00;;;;;;4918533;29;20262;-83
2022/03/07 03:55:41;;;;;;;11.90;10.60;;;0.90;62.00;;;;;;4918762;29;20230;-84
2022/03/07 03:58:08;;;;;;;12.75;10.70;;;1.00;61.80;;;;;;4920328;29;20241;-84
2022/03/07 04:00:35;;;;;;;13.32;12.02;;;1.00;61.60;;;;;;4919318;29;20245;-84
2022/03/07 04:03:01;;;;;;;13.10;11.75;;;1.00;61.70;;;;;;4926590;29;20214;-84
2022/03/07 04:05:29;;;;;;;12.77;11.48;;;0.90;61.80;;;;;;4926048;29;20255;-82
2022/03/07 04:07:56;;;;;;;14.98;11.25;;;1.00;61.60;;;;;;4919808;29;20214;-82
2022/03/07 04:10:23;;;;;;;12.32;11.02;;;1.00;61.30;;;;;;4919459;29;20207;-85
2022/03/07 04:12:49;;;;;;;13.60;11.43;;;1.00;61.20;;;;;;4927074;29;20218;-82
2022/03/07 04:15:16;;;;;;;13.00;11.73;;;0.90;61.70;;;;;;4924324;29;20230;-81
2022/03/07 04:17:44;;;;;;;14.68;12.60;;;0.80;62.10;;;;;;4919737;29;20214;-81
2022/03/07 04:20:12;;;;;;;12.38;11.07;;;0.70;62.40;;;;;;4919383;29;20298;-81
2022/03/07 04:22:41;;;;;;;11.63;10.43;;;0.70;62.70;;;;;;4927244;29;20202;-82
2022/03/07 04:25:09;;;;;;;14.75;11.30;;;0.60;62.80;;;;;;4926643;29;20231;-82
2022/03/07 04:27:35;;;;;;;13.85;11.32;;;0.60;63.10;;;;;;4921497;29;20206;-82
2022/03/07 04:30:04;;;;;;;14.25;11.73;;;0.60;63.30;;;;;;4919921;29;20681;-83
2022/03/07 04:32:33;;;;;;;12.68;11.13;;;0.60;63.50;;;;;;4931801;29;20217;-81
2022/03/07 04:35:03;;;;;;;12.45;11.23;;;0.60;63.70;;;;;;4936706;29;20211;-82
2022/03/07 04:37:31;;;;;;;12.90;11.50;;;0.60;63.90;;;;;;4929221;29;20203;-82
2022/03/07 04:39:59;;;;;;;14.57;12.05;;;0.60;64.00;;;;;;4918705;29;20214;-83
2022/03/07 04:42:26;;;;;;;14.20;12.23;;;0.60;64.00;;;;;;4918477;29;20292;-82
2022/03/07 04:44:52;;;;;;;13.40;12.10;;;0.60;64.20;;;;;;4918227;29;20230;-83
2022/03/07 04:47:19;;;;;;;15.05;12.55;;;0.70;64.60;;;;;;4918688;29;20202;-82
2022/03/07 04:49:46;;;;;;;15.10;12.40;;;0.70;64.60;;;;;;4918110;29;20233;-83
2022/03/07 04:52:12;;;;;;;13.05;11.45;;;0.70;64.80;;;;;;4918488;29;20211;-82
2022/03/07 04:54:39;;;;;;;15.40;13.40;;;0.70;64.70;;;;;;4925911;29;20273;-82
2022/03/07 04:57:07;;;;;;;15.70;13.23;;;0.70;65.00;;;;;;4937698;29;20207;-82
2022/03/07 04:59:34;;;;;;;15.68;13.60;;;0.70;65.00;;;;;;4922011;29;20207;-83
2022/03/07 05:02:01;;;;;;;16.55;14.15;;;0.80;65.00;;;;;;4918115;29;20653;-84
2022/03/07 05:04:28;;;;;;;15.23;13.43;;;0.80;65.10;;;;;;4918425;29;20203;-83
2022/03/07 05:06:54;;;;;;;15.88;14.07;;;0.80;65.20;;;;;;4917893;29;20203;-83
2022/03/07 05:09:21;;;;;;;14.32;12.93;;;0.80;65.30;;;;;;4918044;29;20210;-84
2022/03/07 05:11:48;;;;;;;20.50;14.20;;;0.90;65.70;;;;;;4922580;29;20574;-83
2022/03/07 05:14:17;;;;;;;14.90;12.80;;;0.90;65.60;;;;;;4917982;29;20218;-83
2022/03/07 05:16:44;;;;;;;17.23;13.93;;;0.90;65.50;;;;;;4917510;29;20258;-83
2022/03/07 05:19:11;;;;;;;15.07;13.48;;;1.00;65.30;;;;;;4917600;29;20217;-83
2022/03/07 05:21:38;;;;;;;14.85;12.20;;;0.90;65.00;;;;;;4917513;29;20594;-83
2022/03/07 05:24:05;;;;;;;15.30;12.88;;;0.90;65.20;;;;;;4918757;29;20681;-83
2022/03/07 05:26:32;;;;;;;18.50;13.90;;;0.90;65.50;;;;;;4918235;29;20768;-84
2022/03/07 05:28:59;;;;;;;17.77;14.77;;;0.80;65.60;;;;;;4917797;29;20206;-83
2022/03/07 05:31:27;;;;;;;15.13;13.00;;;0.90;66.20;;;;;;4921357;29;20213;-82
2022/03/07 05:33:54;;;;;;;15.30;13.45;;;0.90;66.40;;;;;;4910934;29;20550;-82
2022/03/07 05:36:20;;;;;;;17.52;13.57;;;0.90;66.60;;;;;;4911732;29;20617;-82
2022/03/07 05:38:48;;;;;;;14.20;12.70;;;0.80;66.90;;;;;;4908254;29;20621;-81
2022/03/07 05:41:15;;;;;;;14.50;12.98;;;0.90;67.50;;;;;;4915838;29;20234;-84
2022/03/07 05:43:41;;;;;;;17.42;12.73;;;0.90;67.50;;;;;;4924863;29;20262;-84
2022/03/07 05:46:08;;;;;;;15.85;14.20;;;0.90;67.80;;;;;;4924693;29;20222;-84
2022/03/07 05:48:36;;;;;;;15.48;12.98;;;0.80;67.90;;;;;;4917725;29;20208;-83
2022/03/07 05:51:03;;;;;;;14.85;13.30;;;0.80;68.30;;;;;;4934354;29;20218;-81
2022/03/07 05:53:30;;;;;;;16.77;14.63;;;0.80;68.50;;;;;;4927316;29;20198;-80
2022/03/07 05:55:56;;;;;;;16.70;14.98;;;0.70;68.60;;;;;;4914835;29;20218;-81
2022/03/07 05:58:23;;;;;;;19.65;14.20;;;0.70;69.10;;;;;;4921299;29;20202;-81
2022/03/07 06:00:50;;;;;;;15.30;12.90;;;0.70;69.40;;;;;;4912109;29;20897;-82
2022/03/07 06:03:17;;;;;;;14.40;12.88;;;0.70;69.60;;;;;;4915597;29;20198;-82
2022/03/07 06:05:45;;;;;;;17.40;14.73;;;0.70;69.70;;;;;;4920551;29;20599;-82
2022/03/07 06:08:12;;;;;;;18.77;14.18;;;0.70;69.70;;;;;;4903805;29;20215;-81
2022/03/07 06:10:41;;;;;;;18.73;14.00;;;0.70;69.90;;;;;;4912057;29;20207;-79
2022/03/07 06:13:08;;;;;;;15.88;12.30;;;0.70;69.80;;;;;;4916671;29;20207;-79
2022/03/07 06:15:35;;;;;;;16.70;13.43;;;0.80;70.10;;;;;;4925558;29;20222;-79
2022/03/07 06:18:02;;;;;;;14.80;13.30;;;0.80;69.90;;;;;;4932460;29;20198;-79
2022/03/07 06:20:29;;;;;;;18.42;12.60;;;0.80;70.00;;;;;;4920211;29;20211;-80
2022/03/07 06:22:57;;;;;;;17.60;12.98;;;0.90;70.10;;;;;;4921318;29;20259;-81
2022/03/07 06:25:24;;;;;;;15.40;13.38;;;0.80;70.30;;;;;;4935442;29;20229;-80
2022/03/07 06:27:50;;;;;;;14.68;13.18;;;0.90;70.20;;;;;;4946234;29;20207;-80
2022/03/07 06:30:17;;;;;;;16.30;12.77;;;1.00;70.00;;;;;;4937646;29;20203;-81
2022/03/07 06:32:44;;;;;;;21.75;17.85;;;1.10;69.90;;;;;;4941921;28;20183;-80
2022/03/07 06:35:11;;;;;;;17.27;13.70;;;1.10;69.60;;;;;;4936992;29;20484;-81
2022/03/07 06:37:38;;;;;;;16.63;13.02;;;1.20;69.40;;;;;;4930074;29;20225;-81
2022/03/07 06:40:07;;;;;;;13.60;11.05;;;1.20;69.10;;;;;;4926279;29;20218;-81
2022/03/07 06:42:34;;;;;;;12.30;11.10;;;1.20;68.60;;;;;;4921958;29;20238;-81
2022/03/07 06:45:00;;;;;;;19.92;11.60;;;1.30;68.00;;;;;;4918363;29;20331;-82
2022/03/07 06:47:28;;;;;;;13.23;10.68;;;1.40;67.60;;;;;;4922324;29;20198;-80
2022/03/07 06:49:57;;;;;;;13.15;11.38;;;1.50;67.20;;;;;;4921302;29;20198;-81
2022/03/07 06:52:24;;;;;;;13.07;11.07;;;1.60;67.20;;;;;;4928508;29;20288;-81
2022/03/07 06:54:51;;;;;;;17.08;11.90;;;1.60;66.30;;;;;;4925371;29;20245;-81
2022/03/07 06:57:21;;;;;;;13.07;10.13;;;1.70;66.00;;;;;;4920858;29;20233;-82
2022/03/07 06:59:48;;;;;;;11.70;10.50;;;1.70;65.80;;;;;;4909339;29;20238;-79
2022/03/07 07:02:15;;;;;;;11.70;10.35;;;1.70;65.50;;;;;;4918077;29;20209;-81
2022/03/07 07:04:42;;;;;;;13.30;11.38;;;1.70;65.30;;;;;;4919099;29;20224;-81
2022/03/07 07:07:09;;;;;;;13.13;11.60;;;1.60;65.40;;;;;;4926637;29;20298;-81
2022/03/07 07:09:36;;;;;;;13.68;11.40;;;1.60;65.70;;;;;;4914831;29;20199;-81
2022/03/07 07:12:03;;;;;;;11.85;10.50;;;1.60;65.80;;;;;;4933193;29;20204;-80
2022/03/07 07:14:31;;;;;;;11.57;10.35;;;1.60;65.70;;;;;;4937994;29;20430;-82
2022/03/07 07:16:57;;;;;;;13.05;9.93;;;1.60;65.70;;;;;;4924513;29;20205;-81
2022/03/07 07:19:24;;;;;;;11.30;10.20;;;1.60;65.80;;;;;;4931234;29;20207;-80
2022/03/07 07:21:51;;;;;;;12.77;9.55;;;1.70;65.90;;;;;;4929171;29;20294;-80
2022/03/07 07:24:18;;;;;;;11.55;10.02;;;1.70;65.90;;;;;;4928654;29;20290;-80
2022/03/07 07:26:45;;;;;;;12.45;10.75;;;1.80;65.70;;;;;;4919600;29;20219;-81
2022/03/07 07:29:11;;;;;;;12.48;11.27;;;1.90;65.60;;;;;;4923960;29;20251;-81
2022/03/07 07:31:39;;;;;;;14.73;10.45;;;2.00;65.40;;;;;;4917298;29;20524;-80
2022/03/07 07:34:06;;;;;;;11.50;10.30;;;2.10;65.30;;;;;;4924133;29;20706;-80
2022/03/07 07:36:33;;;;;;;12.70;10.45;;;2.20;65.10;;;;;;4924604;29;20697;-81
2022/03/07 07:38:59;;;;;;;14.45;10.73;;;2.30;64.80;;;;;;4920552;29;20208;-82
2022/03/07 07:41:26;;;;;;;13.50;11.75;;;2.30;64.40;;;;;;4924302;29;20209;-82
2022/03/07 07:43:53;;;;;;;12.88;11.40;;;2.30;64.20;;;;;;4920783;29;20207;-82
2022/03/07 07:46:25;;;;;;;13.95;12.15;;;2.30;63.60;;;;;;4915754;29;20761;-83
2022/03/07 07:48:53;;;;;;;13.85;12.35;;;2.40;63.40;;;;;;4915311;29;20200;-82
2022/03/07 07:51:21;;;;;;;12.75;11.45;;;2.10;63.10;;;;;;4916003;29;20208;-80
2022/03/07 07:53:48;;;;;;;13.45;10.57;;;2.00;63.60;;;;;;4916656;29;20623;-82
2022/03/07 07:56:15;;;;;;;12.88;11.23;;;2.20;63.50;;;;;;4921810;29;20244;-81
2022/03/07 07:58:42;;;;;;;13.75;11.98;;;2.40;63.40;;;;;;4922699;29;20206;-80
2022/03/07 08:01:08;;;;;;;12.77;11.27;;;2.60;62.70;;;;;;4933345;29;20206;-81
2022/03/07 08:03:35;;;;;;;15.10;12.52;;;2.60;61.90;;;;;;4930470;29;20194;-85
2022/03/07 08:06:04;;;;;;;12.70;11.27;;;2.40;61.40;;;;;;4922961;29;20723;-84
2022/03/07 08:08:30;;;;;;;13.10;11.70;;;2.60;61.50;;;;;;4926330;29;20226;-87
2022/03/07 08:10:58;;;;;;;15.70;13.48;;;2.90;61.30;;;;;;4918399;29;20639;-84
2022/03/07 08:13:25;;;;;;;13.20;11.60;;;3.80;59.60;;;;;;4926525;29;20198;-84
2022/03/07 08:15:52;;;;;;;13.93;10.95;;;4.10;58.10;;;;;;4929244;29;20728;-84
2022/03/07 08:18:18;;;;;;;12.70;11.18;;;4.30;57.20;;;;;;4921033;29;20202;-84
2022/03/07 08:20:45;;;;;;;13.00;11.00;;;4.20;56.60;;;;;;4928354;29;20205;-84
2022/03/07 08:23:13;;;;;;;12.75;11.45;;;3.90;56.70;;;;;;4926006;29;20210;-84
2022/03/07 08:25:40;;;;;;;13.88;12.45;;;4.10;56.60;;;;;;4925146;29;20216;-84
2022/03/07 08:28:07;;;;;;;13.95;11.20;;;4.10;55.60;;;;;;4929744;29;20215;-84
2022/03/07 08:30:34;;;;;;;14.25;12.43;;;4.40;54.80;;;;;;4933935;29;20206;-84
2022/03/07 08:33:01;;;;;;;11.93;10.85;;;4.80;54.50;;;;;;4921991;29;20266;-84
2022/03/07 08:35:28;;;;;;;13.13;11.87;;;5.30;53.60;;;;;;4922314;29;20221;-84
2022/03/07 08:37:55;;;;;;;12.30;11.07;;;6.10;53.10;;;;;;4923768;29;20522;-84
2022/03/07 08:40:25;;;;;;;13.40;12.07;;;6.80;51.30;;;;;;4923595;29;20454;-83
2022/03/07 08:42:53;;;;;;;12.33;11.10;;;7.10;51.00;;;;;;4910096;29;20464;-83
2022/03/07 08:45:20;;;;;;;12.70;11.50;;;8.00;50.50;;;;;;4922480;29;20545;-79
2022/03/07 08:47:47;;;;;;;14.23;12.83;;;8.50;47.50;;;;;;4915836;29;20447;-78
2022/03/07 08:50:15;;;;;;;13.60;11.93;;;7.90;46.50;;;;;;4921530;29;20515;-80
2022/03/07 08:52:41;;;;;;;13.43;12.07;;;7.90;47.10;;;;;;4928106;29;20442;-80
2022/03/07 08:55:09;;;;;;;13.27;11.97;;;7.30;47.70;;;;;;4926723;29;20468;-81
2022/03/07 08:57:38;;;;;;;13.03;11.73;;;7.90;47.80;;;;;;4928064;29;20914;-82
2022/03/07 09:00:07;;;;;;;12.30;11.00;;;8.30;46.70;;;;;;4922753;29;20444;-81
2022/03/07 09:02:34;;;;;;;12.70;11.50;;;7.90;45.90;;;;;;4929318;29;21199;-82
2022/03/07 09:05:01;;;;;;;12.63;11.50;;;7.50;46.60;;;;;;4918738;29;20470;-81
2022/03/07 09:07:28;;;;;;;14.83;13.03;;;8.00;46.30;;;;;;4932341;29;20482;-82
2022/03/07 09:09:55;;;;;;;13.80;12.43;;;7.70;46.00;;;;;;4935645;29;20475;-79
2022/03/07 09:12:27;;;;;;;12.57;11.37;;;8.30;45.90;;;;;;4921971;29;20446;-81
2022/03/07 09:14:56;;;;;;;14.33;12.90;;;9.30;45.10;;;;;;4912300;29;20472;-82
2022/03/07 09:17:23;;;;;;;13.13;11.87;;;9.60;44.00;;;;;;4918156;29;20495;-81
2022/03/07 09:19:50;;;;;;;14.23;12.83;;;8.30;44.00;;;;;;4913160;29;20461;-80
2022/03/07 09:22:17;;;;;;;13.70;12.30;;;7.20;46.00;;;;;;4925705;29;20443;-79
2022/03/07 09:24:44;;;;;;;14.10;12.67;;;7.80;46.90;;;;;;4933803;29;20469;-83
2022/03/07 09:27:11;;;;;;;13.23;11.93;;;8.40;45.90;;;;;;4922828;29;20500;-83
2022/03/07 09:29:38;;;;;;;13.03;11.70;;;9.20;44.20;;;;;;4916715;29;20457;-83
2022/03/07 09:32:07;;;;;;;18.40;14.40;;;9.10;43.50;;;;;;4918110;29;20460;-83
2022/03/07 09:34:35;;;;;;;12.77;11.40;;;10.00;42.50;;;;;;4918154;29;20455;-82
2022/03/07 09:37:04;;;;;;;13.70;12.50;;;10.00;40.80;;;;;;4921308;29;20502;-84
2022/03/07 09:39:31;;;;;;;12.30;11.10;;;8.80;42.80;;;;;;4918510;29;20452;-84
2022/03/07 09:41:58;;;;;;;14.53;13.23;;;8.80;44.20;;;;;;4933890;29;20446;-85
2022/03/07 09:44:25;;;;;;;13.70;12.50;;;11.00;42.90;;;;;;4937212;29;20442;-82
2022/03/07 09:46:52;;;;;;;14.83;13.57;;;10.50;40.20;;;;;;4930049;29;20480;-80
2022/03/07 09:49:20;;;;;;;15.07;13.40;;;10.20;41.00;;;;;;4927689;29;20526;-81
2022/03/07 09:51:47;;;;;;;24.57;14.33;;;9.70;42.30;;;;;;4912469;29;20452;-82
2022/03/07 09:54:14;;;;;;;15.90;14.30;;;10.80;41.50;;;;;;4913627;29;20542;-81
2022/03/07 09:56:41;;;;;;;12.50;11.43;;;12.80;39.60;;;;;;4918089;29;20973;-81
2022/03/07 09:59:08;;;;;;;14.73;13.43;;;13.10;37.00;;;;;;4915810;29;20850;-84
2022/03/07 10:01:36;;;;;;;13.73;12.53;;;12.80;36.80;;;;;;4920639;29;20459;-81
2022/03/07 10:04:07;;;;;;;14.60;13.20;;;11.90;36.50;;;;;;4919414;29;20454;-81
2022/03/07 10:06:35;;;;;;;14.87;13.10;;;10.40;38.70;;;;;;4905290;29;20510;-80
2022/03/07 10:09:03;;;;;;;14.00;12.70;;;9.30;41.80;;;;;;4923906;29;20438;-80
2022/03/07 10:11:31;;;;;;;13.70;11.90;;;7.60;43.10;;;;;;4927500;29;21149;-81
2022/03/07 10:14:00;;;;;;;13.70;12.40;;;6.80;45.20;;;;;;4925105;29;20511;-79
2022/03/07 10:16:36;;;;;;;13.93;11.90;;;6.00;46.50;;;;;;4915802;29;20474;-81
2022/03/07 10:19:08;;;;;;;12.90;11.43;;;6.20;47.80;;;;;;4918275;29;20449;-83
2022/03/07 10:21:46;;;;;;;17.90;13.97;;;6.20;47.50;;;;;;4928977;29;20478;-82
2022/03/07 10:24:13;;;;;;;13.40;12.20;;;6.50;47.50;;;;;;4915317;29;20463;-81
2022/03/07 10:26:40;;;;;;;14.60;13.00;;;6.70;47.10;;;;;;4928354;29;20990;-82
2022/03/07 10:29:07;;;;;;;13.90;12.50;;;6.50;47.00;;;;;;4914312;29;20457;-83
2022/03/07 10:31:34;;;;;;;13.60;12.30;;;7.00;47.50;;;;;;4949742;29;20446;-82
2022/03/07 10:34:02;;;;;;;14.90;13.30;;;7.30;46.50;;;;;;4938643;28;20504;-81
2022/03/07 10:36:34;;;;;;;14.60;12.20;;;7.70;46.20;;;;;;4938953;29;20490;-80
2022/03/07 10:39:04;;;;;;;15.00;13.40;;;8.60;45.10;;;;;;4934099;29;20829;-79
2022/03/07 10:41:36;;;;;;;13.77;12.57;;;8.50;44.20;;;;;;4926952;29;20446;-82
2022/03/07 10:44:04;;;;;;;13.30;12.07;;;7.70;45.30;;;;;;4928091;29;20442;-80
2022/03/07 10:46:31;;;;;;;15.30;13.63;;;8.30;45.60;;;;;;4930567;29;20491;-82
2022/03/07 10:48:57;;;;;;;14.13;12.80;;;9.10;44.10;;;;;;4930145;29;20447;-82
2022/03/07 10:51:26;;;;;;;14.83;13.40;;;9.60;43.20;;;;;;4921082;29;20486;-81
2022/03/07 10:53:53;;;;;;;16.87;15.20;;;10.20;41.40;;;;;;4916778;29;20510;-81
2022/03/07 10:58:51;;;;;;;14.37;12.83;;;13.90;37.90;;;;;;4932018;29;20475;-85
2022/03/07 11:01:29;;;;;;;15.03;13.63;;;15.10;35.50;;;;;;4930284;29;20443;-84
2022/03/07 11:03:56;;;;;;;13.70;12.50;;;16.00;33.20;;;;;;4935238;29;20450;-84
2022/03/07 11:06:25;;;;;;;13.33;12.07;;;16.30;32.20;;;;;;4928474;29;20478;-84
2022/03/07 11:08:52;;;;;;;13.83;12.63;;;14.90;31.90;;;;;;4925485;29;20446;-84
2022/03/07 11:11:21;;;;;;;13.80;12.53;;;13.50;33.60;;;;;;4910115;29;20455;-84
2022/03/07 11:13:55;;;;;;;13.10;11.90;;;11.20;35.90;;;;;;4909190;29;20460;-86
2022/03/07 11:16:22;;;;;;;13.67;12.37;;;10.80;37.90;;;;;;4912775;29;20462;-85
2022/03/07 11:18:54;;;;;;;12.87;11.67;;;12.10;37.40;;;;;;4908993;29;20452;-85
2022/03/07 11:21:21;;;;;;;13.63;12.23;;;13.10;36.70;;;;;;4908658;29;20459;-85
2022/03/07 11:23:48;;;;;;;14.53;13.33;;;13.90;34.40;;;;;;4907960;29;20458;-84
2022/03/07 11:26:16;;;;;;;13.10;11.97;;;14.30;33.40;;;;;;4914813;29;20452;-85
2022/03/07 11:28:43;;;;;;;15.30;14.03;;;14.00;32.80;;;;;;4910901;29;20497;-84
2022/03/07 11:31:20;;;;;;;14.67;13.30;;;14.30;32.90;;;;;;4905991;29;20473;-86
2022/03/07 11:33:51;;;;;;;13.93;12.70;;;15.10;33.70;;;;;;4919060;29;20454;-84
2022/03/07 11:36:20;;;;;;;13.87;12.57;;;14.40;32.60;;;;;;4926908;29;20851;-85
2022/03/07 11:38:52;;;;;;;15.43;14.10;;;13.90;33.00;;;;;;4931674;29;20442;-85
2022/03/07 11:41:25;;;;;;;13.60;12.50;;;12.70;33.80;;;;;;4931758;29;20466;-85
2022/03/07 11:43:53;;;;;;;14.43;13.03;;;12.40;35.30;;;;;;4943018;29;20439;-87
2022/03/07 11:46:26;;;;;;;13.77;12.33;;;14.00;34.00;;;;;;4930700;29;20518;-84
2022/03/07 11:48:53;;;;;;;14.70;13.23;;;12.90;33.40;;;;;;4942135;29;20448;-88
2022/03/07 11:51:22;;;;;;;13.70;12.40;;;13.30;34.40;;;;;;4919423;29;20463;-85
2022/03/07 11:53:50;;;;;;;13.43;12.13;;;14.90;33.00;;;;;;4936142;29;20526;-88
2022/03/07 11:56:19;;;;;;;13.53;12.33;;;12.80;32.30;;;;;;4918455;29;20431;-86
2022/03/07 11:58:50;;;;;;;12.37;11.20;;;10.90;34.90;;;;;;4919145;29;20436;-87
2022/03/07 12:01:20;;;;;;;13.37;12.17;;;11.40;36.30;;;;;;4913172;29;20543;-84
2022/03/07 12:03:50;;;;;;;12.90;11.80;;;11.70;35.80;;;;;;4923688;29;20455;-84
2022/03/07 12:06:20;;;;;;;14.03;12.83;;;12.40;34.80;;;;;;4912538;29;20899;-85
2022/03/07 12:08:49;;;;;;;13.80;12.50;;;11.10;34.80;;;;;;4919939;29;20482;-85
2022/03/07 12:11:27;;;;;;;13.63;12.33;;;9.50;37.40;;;;;;4911851;29;20448;-85
2022/03/07 12:13:55;;;;;;;13.93;12.63;;;10.30;38.00;;;;;;4906397;29;20551;-85
2022/03/07 12:16:26;;;;;;;13.63;12.33;;;12.40;37.30;;;;;;4922984;29;20450;-84
2022/03/07 12:19:05;;;;;;;13.30;12.00;;;13.20;34.30;;;;;;4921843;29;20451;-84
2022/03/07 12:21:32;;;;;;;14.03;12.73;;;13.50;33.20;;;;;;4922509;29;20430;-85
2022/03/07 12:23:59;;;;;;;14.50;13.00;;;13.40;33.50;;;;;;4922041;29;20467;-85
2022/03/07 12:26:26;;;;;;;14.70;13.30;;;14.20;33.30;;;;;;4915756;29;20450;-84
2022/03/07 12:28:53;;;;;;;13.10;12.00;;;13.60;32.00;;;;;;4929279;29;20501;-86
2022/03/07 12:31:25;;;;;;;14.23;12.60;;;14.40;32.20;;;;;;4926225;29;20455;-87
2022/03/07 12:33:52;;;;;;;13.73;12.47;;;14.10;31.80;;;;;;4916332;29;20801;-84
2022/03/07 12:36:25;;;;;;;13.90;12.70;;;13.80;32.40;;;;;;4935368;29;20438;-87
2022/03/07 12:38:54;;;;;;;14.70;13.50;;;14.90;31.80;;;;;;4934611;29;20451;-84
2022/03/07 12:41:30;;;;;;;14.37;13.07;;;15.00;30.10;;;;;;4919728;29;20474;-84